Time;durP1;ratioP1;P1;durP2;ratioP2;P2;SDS_P1;SDS_P2;PMS_P1;PMS_P2;Temp;Humidity;BMP_temperature;BMP_pressure;BME280_temperature;BME280_humidity;BME280_pressure;Samples;Min_cycle;Max_cycle;Signal;HPM_P1;HPM_P2
2022/04/28 00:02:20;;;;;;;16.33;10.07;;;12.20;99.90;;;;;;4936722;29;20340;-81
2022/04/28 00:04:46;;;;;;;25.53;15.80;;;12.20;99.90;;;;;;4954356;29;20273;-78
2022/04/28 00:07:12;;;;;;;15.80;10.27;;;12.20;99.90;;;;;;4936962;29;20263;-78
2022/04/28 00:09:37;;;;;;;31.23;19.50;;;12.20;99.90;;;;;;4936189;28;20692;-78
2022/04/28 00:12:03;;;;;;;20.47;12.33;;;12.10;99.90;;;;;;4954623;29;20226;-78
2022/04/28 00:14:30;;;;;;;30.10;16.30;;;12.20;99.90;;;;;;4953897;29;20257;-78
2022/04/28 00:16:55;;;;;;;21.20;12.47;;;12.20;99.90;;;;;;4953876;29;20372;-78
2022/04/28 00:19:21;;;;;;;18.53;12.10;;;12.10;99.90;;;;;;4953119;29;20265;-77
2022/04/28 00:21:46;;;;;;;16.90;11.80;;;12.00;99.90;;;;;;4953831;28;20219;-78
2022/04/28 00:24:12;;;;;;;18.73;12.17;;;12.10;99.90;;;;;;4936679;29;20179;-81
2022/04/28 00:26:37;;;;;;;15.50;11.17;;;12.10;99.90;;;;;;4954107;29;20877;-79
2022/04/28 00:29:03;;;;;;;20.73;12.20;;;12.10;99.90;;;;;;4953097;29;20211;-78
2022/04/28 00:31:29;;;;;;;16.80;10.60;;;12.00;99.90;;;;;;4936253;29;20293;-76
2022/04/28 00:33:55;;;;;;;16.57;10.60;;;12.00;99.90;;;;;;4953655;29;20758;-76
2022/04/28 00:36:21;;;;;;;17.27;10.87;;;12.00;99.90;;;;;;4936310;29;20302;-76
2022/04/28 00:38:46;;;;;;;15.67;10.47;;;12.00;99.90;;;;;;4953455;29;20902;-77
2022/04/28 00:41:13;;;;;;;13.40;10.47;;;11.90;99.90;;;;;;4953384;28;20593;-77
2022/04/28 00:43:50;;;;;;;13.20;10.20;;;11.90;99.90;;;;;;4953255;29;20587;-77
2022/04/28 00:46:16;;;;;;;16.87;10.47;;;11.90;99.90;;;;;;4953475;29;20301;-78
2022/04/28 00:51:27;;;;;;;14.80;10.70;;;11.80;99.90;;;;;;4953356;28;20241;-77
2022/04/28 00:53:53;;;;;;;18.73;10.70;;;11.80;99.90;;;;;;4936431;29;20270;-78
2022/04/28 00:56:18;;;;;;;15.47;10.70;;;11.70;99.90;;;;;;4953304;29;20211;-78
2022/04/28 00:58:45;;;;;;;13.50;10.27;;;11.70;99.90;;;;;;4952488;29;20727;-77
2022/04/28 01:01:11;;;;;;;15.53;9.50;;;11.70;99.90;;;;;;4936062;29;20302;-76
2022/04/28 01:03:36;;;;;;;14.60;9.73;;;11.70;99.90;;;;;;4953307;29;20286;-76
2022/04/28 01:06:02;;;;;;;17.53;10.53;;;11.70;99.90;;;;;;4954393;29;20179;-76
2022/04/28 01:08:28;;;;;;;14.63;9.80;;;11.70;99.90;;;;;;4935981;29;20294;-76
2022/04/28 01:10:55;;;;;;;13.53;9.83;;;11.70;99.90;;;;;;4953232;28;20215;-77
2022/04/28 01:13:20;;;;;;;14.07;10.10;;;11.60;99.90;;;;;;4952774;28;20211;-77
2022/04/28 01:15:47;;;;;;;13.73;9.70;;;11.40;99.90;;;;;;4935661;29;20217;-77
2022/04/28 01:18:13;;;;;;;16.63;10.30;;;11.40;99.90;;;;;;4952221;29;20210;-77
2022/04/28 01:20:40;;;;;;;14.13;9.77;;;11.40;99.90;;;;;;4936123;29;20210;-76
2022/04/28 01:23:06;;;;;;;17.93;9.47;;;11.40;99.90;;;;;;4953376;29;20837;-76
2022/04/28 01:25:32;;;;;;;16.50;9.97;;;11.30;99.90;;;;;;4952916;29;20244;-78
2022/04/28 01:27:58;;;;;;;17.13;9.23;;;11.30;99.90;;;;;;4952617;29;20824;-77
2022/04/28 01:30:24;;;;;;;14.00;10.27;;;11.20;99.90;;;;;;4935405;29;20199;-76
2022/04/28 01:32:53;;;;;;;15.07;9.70;;;11.30;99.90;;;;;;4953352;29;20171;-76
2022/04/28 01:35:19;;;;;;;14.30;9.23;;;11.20;99.90;;;;;;4952721;29;20278;-77
2022/04/28 01:37:45;;;;;;;15.77;9.23;;;11.20;99.90;;;;;;4935085;29;20215;-78
2022/04/28 01:40:14;;;;;;;14.37;9.93;;;11.20;99.90;;;;;;4935110;29;20294;-76
2022/04/28 01:42:41;;;;;;;15.70;9.57;;;11.10;99.90;;;;;;4952566;29;20215;-77
2022/04/28 01:45:08;;;;;;;12.37;8.97;;;11.10;99.90;;;;;;4935984;29;20210;-77
2022/04/28 01:47:34;;;;;;;15.07;10.00;;;11.00;99.90;;;;;;4935636;29;20646;-77
2022/04/28 01:50:00;;;;;;;13.73;9.17;;;11.00;99.90;;;;;;4952007;28;20265;-76
2022/04/28 01:55:09;;;;;;;18.97;8.67;;;11.00;99.90;;;;;;4952882;29;20240;-77
2022/04/28 01:57:35;;;;;;;13.90;9.00;;;11.10;99.90;;;;;;4952970;29;20246;-76
2022/04/28 02:00:01;;;;;;;11.17;8.17;;;11.00;99.90;;;;;;4952536;28;20203;-79
2022/04/28 02:02:26;;;;;;;13.17;8.60;;;10.90;99.90;;;;;;4935655;29;20270;-76
2022/04/28 02:04:58;;;;;;;12.47;8.57;;;10.90;99.90;;;;;;4953250;29;20571;-76
2022/04/28 02:07:24;;;;;;;12.27;8.73;;;10.90;99.90;;;;;;4936023;29;20679;-76
2022/04/28 02:09:50;;;;;;;13.53;8.77;;;10.90;99.90;;;;;;4952275;28;20589;-76
2022/04/28 02:12:15;;;;;;;12.20;7.83;;;10.90;99.90;;;;;;4952492;29;20190;-77
2022/04/28 02:14:41;;;;;;;11.97;8.43;;;11.00;99.90;;;;;;4935827;29;20249;-76
2022/04/28 02:17:06;;;;;;;12.97;7.90;;;11.10;99.90;;;;;;4952481;29;20723;-76
2022/04/28 02:19:34;;;;;;;13.63;8.30;;;11.00;99.90;;;;;;4934766;29;20199;-76
2022/04/28 02:22:00;;;;;;;11.80;8.40;;;10.90;99.90;;;;;;4935268;29;20314;-77
2022/04/28 02:24:26;;;;;;;14.50;8.90;;;10.80;99.90;;;;;;4952410;29;20186;-77
2022/04/28 02:26:51;;;;;;;12.03;8.07;;;10.70;99.90;;;;;;4956380;28;20179;-76
2022/04/28 02:29:17;;;;;;;12.33;8.40;;;10.70;99.90;;;;;;4955147;29;20221;-76
2022/04/28 02:31:44;;;;;;;16.03;9.47;;;10.70;99.90;;;;;;4955666;28;20215;-77
2022/04/28 02:34:10;;;;;;;12.30;8.63;;;10.60;99.90;;;;;;4938769;29;20215;-75
2022/04/28 02:36:36;;;;;;;10.83;8.07;;;10.60;99.90;;;;;;4955685;29;20313;-77
2022/04/28 02:39:01;;;;;;;14.03;8.20;;;10.60;99.90;;;;;;4955524;29;20191;-77
2022/04/28 02:41:27;;;;;;;13.17;8.07;;;10.50;99.90;;;;;;4937865;29;20215;-77
2022/04/28 02:43:53;;;;;;;10.47;7.70;;;10.60;99.90;;;;;;4955714;29;20207;-77
2022/04/28 02:46:19;;;;;;;13.10;8.37;;;10.50;99.90;;;;;;4955663;29;20213;-77
2022/04/28 02:48:45;;;;;;;8.60;7.43;;;10.60;99.90;;;;;;4954729;29;20215;-76
2022/04/28 02:51:10;;;;;;;10.87;8.03;;;10.60;99.90;;;;;;4955395;28;20199;-77
2022/04/28 02:53:36;;;;;;;17.13;9.03;;;10.60;99.90;;;;;;4952441;29;20179;-76
2022/04/28 02:56:02;;;;;;;10.50;7.70;;;10.60;99.90;;;;;;4935736;29;20314;-75
2022/04/28 02:58:28;;;;;;;15.60;8.77;;;10.60;99.90;;;;;;4954468;29;20250;-76
2022/04/28 03:00:53;;;;;;;11.17;8.17;;;10.60;99.90;;;;;;4955511;28;20210;-76
2022/04/28 03:03:19;;;;;;;9.97;7.97;;;10.50;99.90;;;;;;4938021;29;20640;-77
2022/04/28 03:11:13;;;;;;;10.77;7.87;;;10.40;99.90;;;;;;4955296;28;20218;-75
2022/04/28 03:13:39;;;;;;;10.97;7.73;;;10.30;99.90;;;;;;4955101;29;20210;-76
2022/04/28 03:16:05;;;;;;;12.53;7.80;;;10.20;99.90;;;;;;4955243;29;20210;-76
2022/04/28 03:18:31;;;;;;;13.77;8.53;;;10.20;99.90;;;;;;4954247;29;20750;-76
2022/04/28 03:20:56;;;;;;;16.30;8.27;;;10.10;99.90;;;;;;4938116;29;20211;-76
2022/04/28 03:23:22;;;;;;;9.13;8.13;;;10.10;99.90;;;;;;4946993;29;20207;-74
2022/04/28 03:25:50;;;;;;;12.73;8.60;;;10.10;99.90;;;;;;4954646;29;20405;-76
2022/04/28 03:28:16;;;;;;;14.03;8.53;;;10.00;99.90;;;;;;4947113;29;20211;-76
2022/04/28 03:30:41;;;;;;;11.30;7.97;;;10.00;99.90;;;;;;4929524;29;20237;-76
2022/04/28 03:33:07;;;;;;;11.47;8.23;;;9.90;99.90;;;;;;4955407;29;20221;-76
2022/04/28 03:35:32;;;;;;;13.63;8.33;;;10.00;99.90;;;;;;4937552;29;20214;-76
2022/04/28 03:38:01;;;;;;;16.23;8.63;;;10.10;99.90;;;;;;4945781;28;20791;-76
2022/04/28 03:40:26;;;;;;;13.53;8.83;;;10.10;99.90;;;;;;4954532;28;20217;-76
2022/04/28 03:42:52;;;;;;;12.60;8.70;;;10.00;99.90;;;;;;4937622;29;20589;-76
2022/04/28 03:45:17;;;;;;;10.87;7.60;;;9.90;99.90;;;;;;4937458;29;20180;-77
2022/04/28 03:47:43;;;;;;;11.47;8.37;;;10.00;99.90;;;;;;4954477;29;20186;-76
2022/04/28 03:50:09;;;;;;;11.57;8.10;;;10.00;99.90;;;;;;4953996;28;20217;-76
2022/04/28 03:52:35;;;;;;;12.93;8.07;;;10.00;99.90;;;;;;4954386;29;20209;-76
2022/04/28 03:55:00;;;;;;;12.27;8.63;;;10.00;99.90;;;;;;4954834;29;20597;-77
2022/04/28 03:57:26;;;;;;;10.63;7.60;;;10.00;99.90;;;;;;4937217;29;20759;-76
2022/04/28 03:59:51;;;;;;;14.47;8.43;;;10.00;99.90;;;;;;4954658;28;20203;-76
2022/04/28 04:02:17;;;;;;;12.77;8.23;;;10.00;99.90;;;;;;4946615;29;20207;-76
2022/04/28 04:04:42;;;;;;;14.90;8.33;;;10.00;99.90;;;;;;4946464;29;20290;-76
2022/04/28 04:07:08;;;;;;;11.73;8.30;;;9.90;99.90;;;;;;4937002;29;20211;-75
2022/04/28 04:09:34;;;;;;;12.83;8.67;;;9.90;99.90;;;;;;4936162;29;20211;-75
2022/04/28 04:11:59;;;;;;;10.63;7.97;;;9.90;99.90;;;;;;4954546;28;20557;-77
2022/04/28 04:14:24;;;;;;;11.80;7.87;;;9.90;99.90;;;;;;4953787;29;20858;-76
2022/04/28 04:16:50;;;;;;;12.30;8.17;;;9.90;99.90;;;;;;4953691;29;20233;-76
2022/04/28 04:19:15;;;;;;;11.30;8.17;;;9.90;99.90;;;;;;4953372;29;20206;-76
2022/04/28 04:21:41;;;;;;;11.83;8.27;;;9.90;99.90;;;;;;4953421;28;20714;-76
2022/04/28 04:24:06;;;;;;;13.23;7.90;;;9.90;99.90;;;;;;4936915;29;20191;-76
2022/04/28 04:26:32;;;;;;;12.20;8.37;;;10.00;99.90;;;;;;4935677;29;20717;-76
2022/04/28 04:28:58;;;;;;;12.73;8.10;;;10.00;99.90;;;;;;4953116;29;20207;-76
2022/04/28 04:34:08;;;;;;;13.13;8.67;;;10.30;99.90;;;;;;4953736;29;20642;-77
2022/04/28 04:36:34;;;;;;;13.53;8.37;;;11.20;99.90;;;;;;4953383;29;20293;-78
2022/04/28 04:38:59;;;;;;;11.87;7.90;;;12.10;99.90;;;;;;4953283;29;20261;-77
2022/04/28 04:41:25;;;;;;;13.13;7.90;;;12.00;99.90;;;;;;4935911;29;20277;-76
2022/04/28 04:43:50;;;;;;;11.43;7.53;;;13.50;99.90;;;;;;4953380;29;20231;-77
2022/04/28 04:46:16;;;;;;;13.27;7.77;;;14.40;99.90;;;;;;4928381;29;20282;-78
2022/04/28 04:48:41;;;;;;;8.93;7.03;;;15.30;99.90;;;;;;4952300;28;20270;-76
2022/04/28 04:51:07;;;;;;;10.55;7.68;;;15.50;99.90;;;;;;4953701;28;20199;-77
2022/04/28 04:53:32;;;;;;;9.18;7.22;;;16.00;99.90;;;;;;4953150;29;20684;-76
2022/04/28 04:55:58;;;;;;;12.18;8.55;;;16.40;99.90;;;;;;4952912;29;20211;-75
2022/04/28 04:58:23;;;;;;;11.02;8.20;;;17.00;99.90;;;;;;4952097;29;20227;-76
2022/04/28 05:00:49;;;;;;;10.20;7.25;;;17.30;99.90;;;;;;4935725;29;20210;-76
2022/04/28 05:03:14;;;;;;;11.18;8.38;;;17.60;99.90;;;;;;4952018;28;20282;-75
2022/04/28 05:05:41;;;;;;;12.30;8.48;;;18.40;99.90;;;;;;4953513;29;20269;-75
2022/04/28 05:08:07;;;;;;;15.27;8.60;;;19.10;99.90;;;;;;4952498;29;20233;-75
2022/04/28 05:10:33;;;;;;;12.45;8.40;;;19.60;99.90;;;;;;4952909;28;20219;-76
2022/04/28 05:12:58;;;;;;;14.50;8.45;;;20.00;99.90;;;;;;4952995;29;20257;-76
2022/04/28 05:15:23;;;;;;;13.55;8.85;;;20.50;99.90;;;;;;4952918;29;20554;-76
2022/04/28 05:17:49;;;;;;;11.27;8.23;;;19.70;99.90;;;;;;4953047;29;20218;-75
2022/04/28 05:20:14;;;;;;;13.25;8.52;;;17.90;99.90;;;;;;4952498;28;20636;-76
2022/04/28 05:22:40;;;;;;;12.43;8.10;;;16.60;99.90;;;;;;4949894;23;20240;-74
2022/04/28 05:25:06;;;;;;;14.77;8.88;;;16.70;99.90;;;;;;4914742;29;20793;-73
2022/04/28 05:27:31;;;;;;;13.73;8.30;;;15.90;99.90;;;;;;4914669;29;20218;-73
2022/04/28 05:29:57;;;;;;;14.85;8.98;;;15.20;99.90;;;;;;4914528;29;20203;-73
2022/04/28 05:32:22;;;;;;;11.10;7.93;;;14.70;99.90;;;;;;4930309;29;20586;-73
2022/04/28 05:34:48;;;;;;;14.30;8.50;;;14.40;99.90;;;;;;4921927;29;20845;-73
2022/04/28 05:37:14;;;;;;;14.02;8.90;;;14.30;99.90;;;;;;4922431;29;20293;-73
2022/04/28 05:39:42;;;;;;;11.45;8.85;;;15.30;99.90;;;;;;4924555;29;20212;-73
2022/04/28 05:42:09;;;;;;;13.60;8.68;;;14.60;99.90;;;;;;4925747;29;20255;-74
2022/04/28 05:47:22;;;;;;;12.40;8.20;;;14.60;99.90;;;;;;4935182;29;20925;-72
2022/04/28 05:49:48;;;;;;;13.68;8.82;;;14.70;99.90;;;;;;4933074;29;20241;-76
2022/04/28 05:52:13;;;;;;;14.38;8.45;;;14.30;99.90;;;;;;4926629;29;20691;-76
2022/04/28 05:54:40;;;;;;;12.68;8.98;;;14.20;99.90;;;;;;4917194;29;20208;-75
2022/04/28 05:57:05;;;;;;;12.13;8.65;;;14.00;99.90;;;;;;4911182;29;20200;-74
2022/04/28 05:59:31;;;;;;;11.93;8.85;;;14.70;99.90;;;;;;4913824;29;20590;-75
2022/04/28 06:01:56;;;;;;;11.85;8.35;;;14.70;99.90;;;;;;4932835;29;20236;-74
2022/04/28 06:04:22;;;;;;;10.48;8.15;;;14.40;99.90;;;;;;4931118;29;20204;-73
2022/04/28 06:06:48;;;;;;;12.13;8.80;;;14.20;99.90;;;;;;4942710;29;20219;-73
2022/04/28 06:09:14;;;;;;;15.20;8.73;;;14.20;99.90;;;;;;4941308;29;20226;-75
2022/04/28 06:11:39;;;;;;;11.98;8.60;;;14.00;99.90;;;;;;4939915;29;20688;-75
2022/04/28 06:14:05;;;;;;;17.88;9.05;;;13.80;99.90;;;;;;4923066;29;20219;-75
2022/04/28 06:16:30;;;;;;;14.52;8.65;;;13.80;99.90;;;;;;4940590;29;20298;-75
2022/04/28 06:18:56;;;;;;;13.25;9.02;;;13.80;99.90;;;;;;4940542;29;20234;-74
2022/04/28 06:21:22;;;;;;;10.68;8.50;;;13.60;99.90;;;;;;4939218;29;20763;-74
2022/04/28 06:23:47;;;;;;;15.55;8.80;;;13.60;99.90;;;;;;4922639;29;20183;-73
2022/04/28 06:26:13;;;;;;;16.00;8.93;;;13.40;99.90;;;;;;4922604;29;20204;-74
2022/04/28 06:28:39;;;;;;;13.07;8.85;;;13.20;99.90;;;;;;4921898;29;20226;-75
2022/04/28 06:31:06;;;;;;;11.67;8.57;;;13.20;99.90;;;;;;4938897;29;20701;-75
2022/04/28 06:33:32;;;;;;;13.70;9.55;;;13.10;99.90;;;;;;4938269;29;20299;-75
2022/04/28 06:35:58;;;;;;;13.37;9.10;;;13.10;99.90;;;;;;4939803;29;20211;-75
2022/04/28 06:38:24;;;;;;;13.00;8.37;;;13.30;99.90;;;;;;4943801;29;20243;-75
2022/04/28 06:40:50;;;;;;;16.63;9.57;;;13.40;99.90;;;;;;4943984;29;20587;-73
2022/04/28 06:43:17;;;;;;;14.17;9.13;;;13.50;99.90;;;;;;4942686;29;20215;-73
2022/04/28 06:46:11;;;;;;;14.88;9.10;;;13.60;99.90;;;;;;4915316;29;20215;-73
2022/04/28 06:48:28;;;;;;;18.20;10.33;;;13.60;99.90;;;;;;4940354;29;20332;-74
2022/04/28 06:50:53;;;;;;;14.40;9.52;;;13.60;99.90;;;;;;4927943;29;20235;-74
2022/04/28 06:53:19;;;;;;;13.70;8.68;;;13.90;99.90;;;;;;4940428;29;20235;-75
2022/04/28 06:55:44;;;;;;;15.02;9.20;;;14.00;99.90;;;;;;4921551;29;20227;-74
2022/04/28 06:58:09;;;;;;;18.45;10.00;;;14.30;99.90;;;;;;4937843;29;20220;-72
2022/04/28 07:00:35;;;;;;;19.27;9.80;;;14.70;99.90;;;;;;4939771;29;20237;-74
2022/04/28 07:03:00;;;;;;;13.68;9.40;;;14.90;99.90;;;;;;4915903;29;20207;-75
2022/04/28 07:05:26;;;;;;;14.93;9.77;;;15.10;99.90;;;;;;4922889;29;20216;-76
2022/04/28 07:07:51;;;;;;;10.32;8.57;;;15.40;99.90;;;;;;4936689;29;20276;-74
2022/04/28 07:10:17;;;;;;;12.63;8.77;;;15.60;99.90;;;;;;4935871;29;20216;-74
2022/04/28 07:12:43;;;;;;;12.80;8.45;;;16.20;99.90;;;;;;4934615;29;20635;-74
2022/04/28 07:15:09;;;;;;;12.43;8.40;;;16.50;99.90;;;;;;4936018;29;20191;-74
2022/04/28 07:17:34;;;;;;;13.35;7.93;;;17.00;99.90;;;;;;4936777;29;20211;-74
2022/04/28 07:20:00;;;;;;;13.55;8.00;;;17.50;99.90;;;;;;4936326;29;20203;-74
2022/04/28 07:22:25;;;;;;;12.65;7.90;;;17.50;99.90;;;;;;4936583;29;20227;-75
2022/04/28 07:24:51;;;;;;;13.68;7.07;;;17.60;99.90;;;;;;4936931;29;20693;-75
2022/04/28 07:27:16;;;;;;;13.45;7.68;;;17.60;99.90;;;;;;4937164;29;20198;-74
2022/04/28 07:29:42;;;;;;;15.00;7.43;;;17.80;99.90;;;;;;4919912;29;20176;-74
2022/04/28 07:32:08;;;;;;;14.98;7.32;;;19.30;99.90;;;;;;4937895;29;20609;-71
2022/04/28 07:34:33;;;;;;;12.63;7.80;;;19.80;99.90;;;;;;4937992;29;20679;-73
2022/04/28 07:36:59;;;;;;;11.55;6.78;;;20.10;99.90;;;;;;4931358;29;20259;-74
2022/04/28 07:39:24;;;;;;;9.95;6.20;;;19.70;99.90;;;;;;4936598;29;20211;-75
2022/04/28 07:41:50;;;;;;;12.32;6.00;;;19.80;99.90;;;;;;4931511;29;20196;-75
2022/04/28 07:44:15;;;;;;;10.02;5.72;;;19.30;99.90;;;;;;4925571;29;20207;-76
2022/04/28 07:46:41;;;;;;;8.40;5.65;;;19.10;99.90;;;;;;4918470;29;20267;-73
2022/04/28 07:49:07;;;;;;;9.45;5.07;;;19.00;99.90;;;;;;4933054;29;20214;-73
2022/04/28 07:51:32;;;;;;;11.10;5.80;;;19.60;99.90;;;;;;4922029;29;20299;-73
2022/04/28 07:53:58;;;;;;;8.18;5.65;;;19.90;99.90;;;;;;4931582;29;20242;-72
2022/04/28 07:56:23;;;;;;;10.32;5.70;;;20.30;99.90;;;;;;4931963;29;20235;-73
2022/04/28 07:58:48;;;;;;;9.38;5.88;;;20.40;99.90;;;;;;4927552;29;20720;-73
2022/04/28 08:01:14;;;;;;;17.25;9.93;;;20.60;99.90;;;;;;4927676;29;20221;-73
2022/04/28 08:03:40;;;;;;;10.65;6.45;;;21.40;99.90;;;;;;4932344;29;20212;-74
2022/04/28 08:06:07;;;;;;;11.23;5.38;;;23.10;99.90;;;;;;4932203;29;20188;-73
2022/04/28 08:08:35;;;;;;;10.07;5.72;;;24.00;99.90;;;;;;4928642;29;20298;-72
2022/04/28 08:11:00;;;;;;;8.23;4.75;;;24.70;98.00;;;;;;4931817;29;20217;-74
2022/04/28 08:13:26;;;;;;;12.10;5.47;;;24.50;95.20;;;;;;4932079;29;20588;-74
2022/04/28 08:15:53;;;;;;;10.52;5.05;;;24.30;94.60;;;;;;4922271;29;20205;-72
2022/04/28 08:18:19;;;;;;;8.13;4.38;;;23.70;94.30;;;;;;4922917;29;20213;-74
2022/04/28 08:20:44;;;;;;;11.98;4.70;;;23.80;95.00;;;;;;4928764;29;20263;-72
2022/04/28 08:23:10;;;;;;;8.32;4.65;;;24.50;94.20;;;;;;4932782;29;20223;-73
2022/04/28 08:25:35;;;;;;;7.43;4.75;;;25.20;92.70;;;;;;4924999;29;20212;-75
2022/04/28 08:28:00;;;;;;;9.63;5.93;;;25.10;91.60;;;;;;4923883;29;20213;-74
2022/04/28 08:30:26;;;;;;;11.57;5.40;;;25.60;91.20;;;;;;4926489;29;20287;-74
2022/04/28 08:32:51;;;;;;;8.85;5.70;;;25.60;89.70;;;;;;4930789;29;20211;-75
2022/04/28 08:35:17;;;;;;;8.93;5.72;;;24.70;89.80;;;;;;4930965;29;20208;-73
2022/04/28 08:37:43;;;;;;;14.88;5.78;;;24.40;90.90;;;;;;4927409;29;20267;-74
2022/04/28 08:40:09;;;;;;;14.18;5.53;;;25.00;90.60;;;;;;4912173;29;20211;-75
2022/04/28 08:42:40;;;;;;;14.90;5.60;;;25.80;89.30;;;;;;4931099;29;20231;-76
2022/04/28 08:45:06;;;;;;;10.20;5.55;;;26.10;85.80;;;;;;4933383;29;20175;-76
2022/04/28 08:47:32;;;;;;;8.55;5.30;;;25.60;86.50;;;;;;4933991;29;20222;-75
2022/04/28 08:49:58;;;;;;;9.00;5.10;;;25.50;85.60;;;;;;4929430;29;20211;-75
2022/04/28 08:52:27;;;;;;;8.25;5.43;;;25.40;85.00;;;;;;4930566;29;20212;-76
2022/04/28 08:54:54;;;;;;;11.00;5.15;;;25.60;84.70;;;;;;4926865;29;20212;-77
2022/04/28 08:57:22;;;;;;;11.13;5.05;;;26.10;83.00;;;;;;4927039;29;20204;-73
2022/04/28 08:59:50;;;;;;;10.57;4.85;;;25.30;83.00;;;;;;4923892;29;20178;-77
2022/04/28 09:02:23;;;;;;;15.90;8.27;;;25.90;83.00;;;;;;4929242;29;20217;-75
2022/04/28 09:04:48;;;;;;;10.95;5.65;;;25.50;83.20;;;;;;4919669;29;20617;-75
2022/04/28 09:07:14;;;;;;;11.82;5.53;;;24.80;82.60;;;;;;4902745;29;20204;-76
2022/04/28 09:09:40;;;;;;;10.20;5.50;;;24.60;85.00;;;;;;4926034;29;20589;-76
2022/04/28 09:12:06;;;;;;;7.82;5.20;;;24.70;85.20;;;;;;4929498;29;20291;-75
2022/04/28 09:14:32;;;;;;;10.25;5.47;;;24.90;84.20;;;;;;4928514;29;20211;-74
2022/04/28 09:17:04;;;;;;;9.60;6.03;;;24.90;83.50;;;;;;4929570;29;20365;-73
2022/04/28 09:19:38;;;;;;;8.82;5.15;;;24.50;83.70;;;;;;4927801;29;20286;-73
2022/04/28 09:22:10;;;;;;;9.85;5.28;;;24.50;83.40;;;;;;4929446;29;20642;-78
2022/04/28 09:24:42;;;;;;;9.20;5.13;;;24.50;85.10;;;;;;4915277;29;20607;-77
2022/04/28 09:27:08;;;;;;;13.25;8.85;;;23.90;84.50;;;;;;4929400;29;20587;-77
2022/04/28 09:29:36;;;;;;;12.38;7.80;;;23.20;85.90;;;;;;4930429;29;20239;-75
2022/04/28 09:32:06;;;;;;;10.95;6.22;;;22.50;86.10;;;;;;4931216;29;20299;-78
2022/04/28 09:34:32;;;;;;;11.20;6.00;;;22.00;86.80;;;;;;4927509;29;20217;-74
2022/04/28 09:36:58;;;;;;;9.50;6.05;;;21.70;88.00;;;;;;4929423;29;20231;-78
2022/04/28 09:42:32;;;;;;;10.75;5.63;;;22.50;89.60;;;;;;4927215;29;20207;-72
2022/04/28 09:44:59;;;;;;;8.85;5.00;;;23.10;88.30;;;;;;4929039;29;20199;-73
2022/04/28 09:47:27;;;;;;;10.38;5.38;;;23.00;88.30;;;;;;4930500;29;20658;-72
2022/04/28 09:49:55;;;;;;;11.77;6.57;;;22.00;88.80;;;;;;4912722;29;20703;-71
2022/04/28 09:52:29;;;;;;;9.35;5.25;;;21.30;90.20;;;;;;4908290;29;20230;-70
2022/04/28 09:54:57;;;;;;;9.82;5.38;;;21.10;90.80;;;;;;4930322;29;20696;-72
2022/04/28 09:57:23;;;;;;;10.68;5.80;;;21.20;90.70;;;;;;4932865;29;20317;-73
2022/04/28 09:59:53;;;;;;;11.57;5.65;;;21.20;91.10;;;;;;4931981;29;20665;-76
2022/04/28 10:02:19;;;;;;;10.45;5.47;;;20.90;91.30;;;;;;4933374;29;20310;-73
2022/04/28 10:04:46;;;;;;;8.32;5.57;;;20.50;92.00;;;;;;4913077;29;20581;-76
2022/04/28 10:07:15;;;;;;;9.98;4.63;;;19.90;93.00;;;;;;4926429;29;20259;-75
2022/04/28 10:09:46;;;;;;;10.50;4.97;;;19.70;93.80;;;;;;4928327;29;20212;-75
2022/04/28 10:12:13;;;;;;;12.75;5.88;;;19.60;94.10;;;;;;4914087;29;20226;-74
2022/04/28 10:14:42;;;;;;;11.32;7.60;;;19.50;93.50;;;;;;4933030;29;20198;-73
2022/04/28 10:17:25;;;;;;;17.33;7.97;;;19.90;93.60;;;;;;4928987;29;20223;-74
2022/04/28 10:19:55;;;;;;;9.18;5.43;;;20.60;93.10;;;;;;4927990;29;20294;-77
2022/04/28 10:22:26;;;;;;;9.18;5.13;;;20.60;92.60;;;;;;4926295;29;20224;-75
2022/04/28 10:33:19;;;;;;;7.00;5.30;;;19.10;94.70;;;;;;4924298;29;20290;-76
2022/04/28 10:35:53;;;;;;;6.53;4.65;;;19.10;94.80;;;;;;4929894;29;20332;-75
2022/04/28 10:38:24;;;;;;;8.90;4.72;;;19.30;94.80;;;;;;4908800;29;20314;-74
2022/04/28 10:41:04;;;;;;;9.75;5.15;;;19.80;94.00;;;;;;4912661;29;20199;-75
2022/04/28 10:43:32;;;;;;;7.55;5.00;;;19.90;94.10;;;;;;4910971;29;20658;-76
2022/04/28 10:46:00;;;;;;;8.13;5.28;;;20.00;93.40;;;;;;4932975;29;20212;-76
2022/04/28 10:48:34;;;;;;;7.97;4.60;;;19.80;93.20;;;;;;4918216;29;20179;-74
2022/04/28 10:51:20;;;;;;;11.90;5.25;;;19.50;92.70;;;;;;4933887;29;20583;-73
2022/04/28 10:53:56;;;;;;;8.65;4.93;;;19.30;93.10;;;;;;4934180;29;20270;-75
2022/04/28 10:56:30;;;;;;;8.88;5.40;;;19.00;93.90;;;;;;4931491;29;20306;-76
2022/04/28 10:59:20;;;;;;;8.38;4.88;;;19.00;94.40;;;;;;4924396;29;20257;-74
2022/04/28 11:01:45;;;;;;;9.73;5.30;;;19.30;94.80;;;;;;4935157;29;20216;-71
2022/04/28 11:04:15;;;;;;;9.70;5.55;;;19.70;94.40;;;;;;4930575;29;20641;-73
2022/04/28 11:06:46;;;;;;;9.13;5.45;;;19.50;94.50;;;;;;4922421;29;20247;-75
2022/04/28 11:09:12;;;;;;;9.73;5.30;;;20.00;94.50;;;;;;4926692;29;20184;-75
2022/04/28 11:11:42;;;;;;;6.40;5.00;;;20.40;94.00;;;;;;4930554;29;20578;-74
2022/04/28 11:14:09;;;;;;;7.43;4.63;;;20.40;93.90;;;;;;4933931;29;20215;-74
2022/04/28 11:16:35;;;;;;;9.00;4.50;;;20.20;92.60;;;;;;4924386;29;20599;-74
2022/04/28 11:19:02;;;;;;;7.45;4.53;;;20.50;92.80;;;;;;4926592;29;20207;-73
2022/04/28 11:21:28;;;;;;;7.50;4.28;;;20.90;92.10;;;;;;4928135;28;20215;-75
2022/04/28 11:23:54;;;;;;;6.70;4.70;;;21.00;91.30;;;;;;4946144;29;20176;-76
2022/04/28 11:26:23;;;;;;;7.53;4.32;;;21.30;91.40;;;;;;4930321;29;20204;-74
2022/04/28 11:28:49;;;;;;;11.95;4.55;;;21.30;91.70;;;;;;4930680;29;20208;-73
2022/04/28 11:31:19;;;;;;;10.68;5.30;;;20.20;91.40;;;;;;4932755;29;20270;-77
2022/04/28 11:36:28;;;;;;;7.72;4.70;;;20.00;92.10;;;;;;4926169;29;20227;-79
2022/04/28 11:39:00;;;;;;;8.43;4.75;;;20.30;92.20;;;;;;4928019;29;20267;-81
2022/04/28 11:41:39;;;;;;;8.05;4.40;;;20.20;91.90;;;;;;4919635;29;20219;-78
2022/04/28 11:44:07;;;;;;;8.23;4.28;;;20.80;91.50;;;;;;4920523;29;20211;-78
2022/04/28 11:46:50;;;;;;;7.60;4.43;;;20.70;91.00;;;;;;4928824;29;20222;-77
2022/04/28 11:49:17;;;;;;;5.57;4.30;;;20.40;91.20;;;;;;4929737;29;20675;-78
2022/04/28 11:51:43;;;;;;;9.82;4.35;;;20.30;91.80;;;;;;4915035;29;20207;-78
2022/04/28 11:54:23;;;;;;;6.40;4.75;;;20.20;91.80;;;;;;4918353;29;20277;-78
2022/04/28 11:56:49;;;;;;;6.55;4.80;;;20.20;91.70;;;;;;4928161;29;20176;-78
2022/04/28 11:59:15;;;;;;;9.98;4.40;;;20.30;92.20;;;;;;4916960;29;20215;-77
2022/04/28 12:01:43;;;;;;;8.05;4.80;;;20.50;92.40;;;;;;4912001;29;20298;-77
2022/04/28 12:04:11;;;;;;;9.82;4.57;;;20.30;91.80;;;;;;4917395;29;20219;-77
2022/04/28 12:06:40;;;;;;;8.85;3.70;;;20.30;91.90;;;;;;4935048;29;20215;-77
2022/04/28 12:14:35;;;;;;;8.95;4.75;;;20.90;90.00;;;;;;4934896;29;20680;-77
2022/04/28 12:19:49;;;;;;;7.85;4.35;;;20.90;90.60;;;;;;4931122;29;20238;-79
2022/04/28 12:22:44;;;;;;;11.43;4.55;;;20.30;90.60;;;;;;4936446;29;20208;-77
2022/04/28 12:25:11;;;;;;;5.18;3.63;;;19.60;91.60;;;;;;4912805;29;20215;-78
2022/04/28 12:27:55;;;;;;;8.65;4.15;;;19.80;91.60;;;;;;4934836;29;20211;-77
2022/04/28 12:30:21;;;;;;;6.00;4.45;;;20.00;91.50;;;;;;4917372;29;20172;-76
2022/04/28 12:32:50;;;;;;;10.70;4.68;;;20.20;91.40;;;;;;4935451;29;20176;-77
2022/04/28 12:35:29;;;;;;;9.82;4.72;;;20.10;91.50;;;;;;4934210;29;20715;-76
2022/04/28 12:38:07;;;;;;;6.68;3.85;;;20.00;91.90;;;;;;4910629;29;20262;-75
2022/04/28 12:40:38;;;;;;;5.22;4.10;;;19.90;92.30;;;;;;4916909;29;20215;-76
2022/04/28 12:43:04;;;;;;;7.15;3.92;;;19.70;92.60;;;;;;4917462;29;20270;-75
2022/04/28 12:45:49;;;;;;;11.70;4.35;;;19.60;92.90;;;;;;4917104;29;20219;-76
2022/04/28 12:48:30;;;;;;;6.65;4.28;;;19.60;92.70;;;;;;4933610;29;20205;-75
2022/04/28 12:51:08;;;;;;;8.27;4.80;;;19.40;93.40;;;;;;4911074;29;20270;-73
2022/04/28 12:54:44;;;;;;;7.75;4.30;;;19.50;93.10;;;;;;5118591;27;21080;-72
2022/04/28 12:57:10;;;;;;;7.80;5.10;;;19.60;93.50;;;;;;5088578;27;20178;-72
2022/04/28 12:59:37;;;;;;;15.77;4.75;;;19.70;93.00;;;;;;5108213;28;20596;-72
2022/04/28 13:02:06;;;;;;;10.32;4.32;;;19.90;93.30;;;;;;5108570;27;20202;-73
2022/04/28 13:04:36;;;;;;;11.90;5.20;;;19.80;93.10;;;;;;5106919;27;20202;-73
2022/04/28 13:07:04;;;;;;;11.48;4.53;;;19.50;94.00;;;;;;5108383;27;20205;-73
2022/04/28 13:09:29;;;;;;;7.90;4.13;;;19.50;94.10;;;;;;5107638;27;20209;-73
2022/04/28 13:11:55;;;;;;;7.32;3.80;;;19.30;94.30;;;;;;5102116;28;20200;-80
2022/04/28 13:14:22;;;;;;;9.27;4.38;;;19.60;93.80;;;;;;5084304;28;20230;-82
2022/04/28 13:16:47;;;;;;;6.25;4.53;;;19.40;93.40;;;;;;5083803;28;20216;-77
2022/04/28 13:19:15;;;;;;;7.15;4.18;;;19.30;93.40;;;;;;5060112;28;20812;-77